sensor_id;sensor_type;location;lat;lon;timestamp;P1;durP1;ratioP1;P2;durP2;ratioP2
13102;SDS011;52970;46.752;17.108;2024-01-11T00:02:15;48.53;;;26.67;;
13102;SDS011;52970;46.752;17.108;2024-01-11T00:04:41;41.50;;;23.83;;
13102;SDS011;52970;46.752;17.108;2024-01-11T00:07:08;40.23;;;22.90;;
13102;SDS011;52970;46.752;17.108;2024-01-11T00:09:33;42.53;;;24.73;;
13102;SDS011;52970;46.752;17.108;2024-01-11T00:11:58;38.77;;;23.67;;
13102;SDS011;52970;46.752;17.108;2024-01-11T00:14:23;40.47;;;23.83;;
13102;SDS011;52970;46.752;17.108;2024-01-11T00:16:48;40.80;;;24.53;;
13102;SDS011;52970;46.752;17.108;2024-01-11T00:19:14;41.57;;;24.97;;
13102;SDS011;52970;46.752;17.108;2024-01-11T00:21:39;42.50;;;26.13;;
13102;SDS011;52970;46.752;17.108;2024-01-11T00:24:04;41.20;;;25.00;;
13102;SDS011;52970;46.752;17.108;2024-01-11T00:26:29;39.43;;;24.20;;
13102;SDS011;52970;46.752;17.108;2024-01-11T00:28:55;45.97;;;26.27;;
13102;SDS011;52970;46.752;17.108;2024-01-11T00:31:20;42.97;;;24.43;;
13102;SDS011;52970;46.752;17.108;2024-01-11T00:33:45;40.50;;;24.57;;
13102;SDS011;52970;46.752;17.108;2024-01-11T00:36:10;42.67;;;25.63;;
13102;SDS011;52970;46.752;17.108;2024-01-11T00:38:35;42.97;;;26.53;;
13102;SDS011;52970;46.752;17.108;2024-01-11T00:41:01;38.67;;;24.30;;
13102;SDS011;52970;46.752;17.108;2024-01-11T00:43:26;41.30;;;25.40;;
13102;SDS011;52970;46.752;17.108;2024-01-11T00:45:51;40.57;;;23.57;;
13102;SDS011;52970;46.752;17.108;2024-01-11T00:48:16;42.13;;;25.00;;
13102;SDS011;52970;46.752;17.108;2024-01-11T00:50:42;36.57;;;22.93;;
13102;SDS011;52970;46.752;17.108;2024-01-11T00:53:07;38.60;;;24.67;;
13102;SDS011;52970;46.752;17.108;2024-01-11T00:55:33;40.30;;;23.77;;
13102;SDS011;52970;46.752;17.108;2024-01-11T00:57:58;43.20;;;24.47;;
13102;SDS011;52970;46.752;17.108;2024-01-11T01:00:24;45.43;;;26.10;;
13102;SDS011;52970;46.752;17.108;2024-01-11T01:02:49;41.80;;;24.97;;
13102;SDS011;52970;46.752;17.108;2024-01-11T01:05:14;41.47;;;26.13;;
13102;SDS011;52970;46.752;17.108;2024-01-11T01:07:40;44.47;;;27.27;;
13102;SDS011;52970;46.752;17.108;2024-01-11T01:10:05;44.20;;;27.07;;
13102;SDS011;52970;46.752;17.108;2024-01-11T01:12:30;43.13;;;25.43;;
13102;SDS011;52970;46.752;17.108;2024-01-11T01:14:56;43.10;;;25.27;;
13102;SDS011;52970;46.752;17.108;2024-01-11T01:17:24;48.07;;;26.87;;
13102;SDS011;52970;46.752;17.108;2024-01-11T01:19:49;42.53;;;25.37;;
13102;SDS011;52970;46.752;17.108;2024-01-11T01:22:14;45.93;;;26.40;;
13102;SDS011;52970;46.752;17.108;2024-01-11T01:24:39;46.23;;;27.20;;
13102;SDS011;52970;46.752;17.108;2024-01-11T01:27:05;41.37;;;25.83;;
13102;SDS011;52970;46.752;17.108;2024-01-11T01:29:30;47.87;;;26.10;;
13102;SDS011;52970;46.752;17.108;2024-01-11T01:31:55;43.37;;;25.67;;
13102;SDS011;52970;46.752;17.108;2024-01-11T01:34:21;42.80;;;24.73;;
13102;SDS011;52970;46.752;17.108;2024-01-11T01:36:46;42.27;;;24.67;;
13102;SDS011;52970;46.752;17.108;2024-01-11T01:39:11;39.20;;;25.00;;
13102;SDS011;52970;46.752;17.108;2024-01-11T01:41:37;43.63;;;24.53;;
13102;SDS011;52970;46.752;17.108;2024-01-11T01:44:02;41.77;;;24.93;;
13102;SDS011;52970;46.752;17.108;2024-01-11T01:46:27;41.23;;;25.13;;
13102;SDS011;52970;46.752;17.108;2024-01-11T01:48:53;43.03;;;24.80;;
13102;SDS011;52970;46.752;17.108;2024-01-11T01:51:19;42.20;;;25.37;;
13102;SDS011;52970;46.752;17.108;2024-01-11T01:53:44;43.33;;;27.27;;
13102;SDS011;52970;46.752;17.108;2024-01-11T01:56:09;49.07;;;27.40;;
13102;SDS011;52970;46.752;17.108;2024-01-11T01:58:35;47.10;;;27.20;;
13102;SDS011;52970;46.752;17.108;2024-01-11T02:01:01;45.07;;;26.63;;
13102;SDS011;52970;46.752;17.108;2024-01-11T02:03:27;37.00;;;23.43;;
13102;SDS011;52970;46.752;17.108;2024-01-11T02:05:53;48.47;;;24.43;;
13102;SDS011;52970;46.752;17.108;2024-01-11T02:08:19;42.50;;;26.20;;
13102;SDS011;52970;46.752;17.108;2024-01-11T02:10:45;38.93;;;24.30;;
13102;SDS011;52970;46.752;17.108;2024-01-11T02:13:11;44.27;;;26.07;;
13102;SDS011;52970;46.752;17.108;2024-01-11T02:15:38;43.77;;;24.20;;
13102;SDS011;52970;46.752;17.108;2024-01-11T02:18:03;40.17;;;23.57;;
13102;SDS011;52970;46.752;17.108;2024-01-11T02:20:28;43.57;;;25.07;;
13102;SDS011;52970;46.752;17.108;2024-01-11T02:22:55;41.13;;;23.90;;
13102;SDS011;52970;46.752;17.108;2024-01-11T02:25:21;40.90;;;23.77;;
13102;SDS011;52970;46.752;17.108;2024-01-11T02:27:49;40.33;;;22.87;;
13102;SDS011;52970;46.752;17.108;2024-01-11T02:30:15;42.27;;;25.30;;
13102;SDS011;52970;46.752;17.108;2024-01-11T02:32:41;39.63;;;23.90;;
13102;SDS011;52970;46.752;17.108;2024-01-11T02:35:06;34.37;;;22.60;;
13102;SDS011;52970;46.752;17.108;2024-01-11T02:37:32;39.73;;;23.33;;
13102;SDS011;52970;46.752;17.108;2024-01-11T02:39:57;42.33;;;24.73;;
13102;SDS011;52970;46.752;17.108;2024-01-11T02:42:23;40.30;;;24.70;;
13102;SDS011;52970;46.752;17.108;2024-01-11T02:44:48;42.33;;;23.93;;
13102;SDS011;52970;46.752;17.108;2024-01-11T02:47:13;40.50;;;22.40;;
13102;SDS011;52970;46.752;17.108;2024-01-11T02:49:38;42.20;;;24.07;;
13102;SDS011;52970;46.752;17.108;2024-01-11T02:52:04;42.17;;;24.87;;
13102;SDS011;52970;46.752;17.108;2024-01-11T02:54:29;39.70;;;23.60;;
13102;SDS011;52970;46.752;17.108;2024-01-11T02:56:54;41.17;;;24.10;;
13102;SDS011;52970;46.752;17.108;2024-01-11T02:59:22;38.93;;;22.53;;
13102;SDS011;52970;46.752;17.108;2024-01-11T03:01:48;40.77;;;23.70;;
13102;SDS011;52970;46.752;17.108;2024-01-11T03:04:13;37.40;;;23.07;;
13102;SDS011;52970;46.752;17.108;2024-01-11T03:06:39;43.50;;;23.80;;
13102;SDS011;52970;46.752;17.108;2024-01-11T03:09:04;40.47;;;24.20;;
13102;SDS011;52970;46.752;17.108;2024-01-11T03:11:29;38.07;;;23.03;;
13102;SDS011;52970;46.752;17.108;2024-01-11T03:13:54;38.37;;;24.07;;
13102;SDS011;52970;46.752;17.108;2024-01-11T03:16:21;38.43;;;23.50;;
13102;SDS011;52970;46.752;17.108;2024-01-11T03:18:46;41.97;;;24.10;;
13102;SDS011;52970;46.752;17.108;2024-01-11T03:21:11;41.77;;;24.10;;
13102;SDS011;52970;46.752;17.108;2024-01-11T03:23:36;38.97;;;23.37;;
13102;SDS011;52970;46.752;17.108;2024-01-11T03:26:02;41.40;;;23.70;;
13102;SDS011;52970;46.752;17.108;2024-01-11T03:28:27;39.87;;;24.03;;
13102;SDS011;52970;46.752;17.108;2024-01-11T03:30:52;39.10;;;23.07;;
13102;SDS011;52970;46.752;17.108;2024-01-11T03:33:17;44.40;;;23.97;;
13102;SDS011;52970;46.752;17.108;2024-01-11T03:35:42;44.47;;;25.47;;
13102;SDS011;52970;46.752;17.108;2024-01-11T03:38:09;38.13;;;23.70;;
13102;SDS011;52970;46.752;17.108;2024-01-11T03:40:34;42.20;;;25.10;;
13102;SDS011;52970;46.752;17.108;2024-01-11T03:42:59;53.23;;;26.77;;
13102;SDS011;52970;46.752;17.108;2024-01-11T03:45:25;46.90;;;26.67;;
13102;SDS011;52970;46.752;17.108;2024-01-11T03:47:50;45.53;;;25.23;;
13102;SDS011;52970;46.752;17.108;2024-01-11T03:50:15;48.13;;;26.23;;
13102;SDS011;52970;46.752;17.108;2024-01-11T03:52:41;46.87;;;25.03;;
13102;SDS011;52970;46.752;17.108;2024-01-11T03:55:06;46.50;;;26.03;;
13102;SDS011;52970;46.752;17.108;2024-01-11T03:57:32;47.60;;;25.93;;
13102;SDS011;52970;46.752;17.108;2024-01-11T03:59:58;46.83;;;26.40;;
13102;SDS011;52970;46.752;17.108;2024-01-11T04:02:24;46.73;;;25.37;;
13102;SDS011;52970;46.752;17.108;2024-01-11T04:04:49;44.20;;;26.13;;
13102;SDS011;52970;46.752;17.108;2024-01-11T04:07:14;44.40;;;25.30;;
13102;SDS011;52970;46.752;17.108;2024-01-11T04:09:39;43.47;;;25.37;;
13102;SDS011;52970;46.752;17.108;2024-01-11T04:12:05;43.53;;;25.40;;
13102;SDS011;52970;46.752;17.108;2024-01-11T04:14:31;44.20;;;25.70;;
13102;SDS011;52970;46.752;17.108;2024-01-11T04:16:56;44.00;;;24.47;;
13102;SDS011;52970;46.752;17.108;2024-01-11T04:19:21;42.30;;;23.50;;
13102;SDS011;52970;46.752;17.108;2024-01-11T04:21:46;42.13;;;23.47;;
13102;SDS011;52970;46.752;17.108;2024-01-11T04:24:11;42.63;;;24.10;;
13102;SDS011;52970;46.752;17.108;2024-01-11T04:26:37;42.73;;;24.53;;
13102;SDS011;52970;46.752;17.108;2024-01-11T04:29:02;44.07;;;25.10;;
13102;SDS011;52970;46.752;17.108;2024-01-11T04:31:28;42.37;;;23.67;;
13102;SDS011;52970;46.752;17.108;2024-01-11T04:33:53;40.10;;;24.80;;
13102;SDS011;52970;46.752;17.108;2024-01-11T04:36:18;37.73;;;23.60;;
13102;SDS011;52970;46.752;17.108;2024-01-11T04:38:43;44.17;;;24.33;;
13102;SDS011;52970;46.752;17.108;2024-01-11T04:41:09;43.50;;;25.27;;
13102;SDS011;52970;46.752;17.108;2024-01-11T04:43:36;45.97;;;26.17;;
13102;SDS011;52970;46.752;17.108;2024-01-11T04:46:02;47.37;;;27.13;;
13102;SDS011;52970;46.752;17.108;2024-01-11T04:48:27;43.33;;;25.23;;
13102;SDS011;52970;46.752;17.108;2024-01-11T04:50:52;48.63;;;27.90;;
13102;SDS011;52970;46.752;17.108;2024-01-11T04:53:18;49.93;;;27.37;;
13102;SDS011;52970;46.752;17.108;2024-01-11T04:55:43;51.63;;;27.60;;
13102;SDS011;52970;46.752;17.108;2024-01-11T04:58:10;48.07;;;27.10;;
13102;SDS011;52970;46.752;17.108;2024-01-11T05:00:35;50.60;;;28.63;;
13102;SDS011;52970;46.752;17.108;2024-01-11T05:03:01;55.30;;;30.30;;
13102;SDS011;52970;46.752;17.108;2024-01-11T05:05:26;52.20;;;30.37;;
13102;SDS011;52970;46.752;17.108;2024-01-11T05:07:51;49.17;;;29.53;;
13102;SDS011;52970;46.752;17.108;2024-01-11T05:10:17;53.73;;;29.57;;
13102;SDS011;52970;46.752;17.108;2024-01-11T05:12:42;51.27;;;30.07;;
13102;SDS011;52970;46.752;17.108;2024-01-11T05:15:07;57.63;;;32.23;;
13102;SDS011;52970;46.752;17.108;2024-01-11T05:17:33;52.63;;;32.83;;
13102;SDS011;52970;46.752;17.108;2024-01-11T05:19:58;60.47;;;33.00;;
13102;SDS011;52970;46.752;17.108;2024-01-11T05:22:24;62.50;;;34.67;;
13102;SDS011;52970;46.752;17.108;2024-01-11T05:24:49;56.40;;;34.50;;
13102;SDS011;52970;46.752;17.108;2024-01-11T05:27:14;67.00;;;36.33;;
13102;SDS011;52970;46.752;17.108;2024-01-11T05:29:39;68.27;;;38.17;;
13102;SDS011;52970;46.752;17.108;2024-01-11T05:32:05;69.87;;;38.20;;
13102;SDS011;52970;46.752;17.108;2024-01-11T05:34:30;72.37;;;39.50;;
13102;SDS011;52970;46.752;17.108;2024-01-11T05:36:55;67.30;;;38.07;;
13102;SDS011;52970;46.752;17.108;2024-01-11T05:39:21;72.23;;;39.57;;
13102;SDS011;52970;46.752;17.108;2024-01-11T05:41:46;73.33;;;40.40;;
13102;SDS011;52970;46.752;17.108;2024-01-11T05:44:11;74.30;;;39.43;;
13102;SDS011;52970;46.752;17.108;2024-01-11T05:46:36;71.80;;;39.67;;
13102;SDS011;52970;46.752;17.108;2024-01-11T05:49:02;72.80;;;41.20;;
13102;SDS011;52970;46.752;17.108;2024-01-11T05:51:27;73.60;;;40.70;;
13102;SDS011;52970;46.752;17.108;2024-01-11T05:53:53;78.57;;;44.07;;
13102;SDS011;52970;46.752;17.108;2024-01-11T05:56:18;78.33;;;40.63;;
13102;SDS011;52970;46.752;17.108;2024-01-11T05:58:44;80.30;;;40.73;;
13102;SDS011;52970;46.752;17.108;2024-01-11T06:01:09;82.57;;;41.70;;
13102;SDS011;52970;46.752;17.108;2024-01-11T06:03:34;85.50;;;42.73;;
13102;SDS011;52970;46.752;17.108;2024-01-11T06:06:00;81.13;;;44.13;;
13102;SDS011;52970;46.752;17.108;2024-01-11T06:08:26;82.63;;;41.60;;
13102;SDS011;52970;46.752;17.108;2024-01-11T06:10:52;80.03;;;43.07;;
13102;SDS011;52970;46.752;17.108;2024-01-11T06:13:17;82.67;;;44.30;;
13102;SDS011;52970;46.752;17.108;2024-01-11T06:15:43;83.67;;;45.20;;
13102;SDS011;52970;46.752;17.108;2024-01-11T06:18:08;84.57;;;44.80;;
13102;SDS011;52970;46.752;17.108;2024-01-11T06:20:34;86.37;;;44.57;;
13102;SDS011;52970;46.752;17.108;2024-01-11T06:22:59;83.83;;;44.17;;
13102;SDS011;52970;46.752;17.108;2024-01-11T06:25:24;81.37;;;43.77;;
13102;SDS011;52970;46.752;17.108;2024-01-11T06:27:49;79.07;;;41.60;;
13102;SDS011;52970;46.752;17.108;2024-01-11T06:30:15;78.70;;;42.10;;
13102;SDS011;52970;46.752;17.108;2024-01-11T06:32:40;80.60;;;41.67;;
13102;SDS011;52970;46.752;17.108;2024-01-11T06:35:05;68.73;;;37.67;;
13102;SDS011;52970;46.752;17.108;2024-01-11T06:37:31;60.33;;;32.97;;
13102;SDS011;52970;46.752;17.108;2024-01-11T06:39:56;62.33;;;34.43;;
13102;SDS011;52970;46.752;17.108;2024-01-11T06:42:22;60.87;;;34.20;;
13102;SDS011;52970;46.752;17.108;2024-01-11T06:44:47;67.17;;;35.37;;
13102;SDS011;52970;46.752;17.108;2024-01-11T06:47:12;67.80;;;34.00;;
13102;SDS011;52970;46.752;17.108;2024-01-11T06:49:38;66.23;;;33.93;;
13102;SDS011;52970;46.752;17.108;2024-01-11T06:52:03;55.03;;;30.73;;
13102;SDS011;52970;46.752;17.108;2024-01-11T06:54:29;64.53;;;34.57;;
13102;SDS011;52970;46.752;17.108;2024-01-11T06:56:56;65.63;;;35.90;;
13102;SDS011;52970;46.752;17.108;2024-01-11T06:59:21;63.20;;;33.80;;
13102;SDS011;52970;46.752;17.108;2024-01-11T07:01:46;60.40;;;32.20;;
13102;SDS011;52970;46.752;17.108;2024-01-11T07:04:12;69.87;;;35.03;;
13102;SDS011;52970;46.752;17.108;2024-01-11T07:06:37;66.80;;;35.33;;
13102;SDS011;52970;46.752;17.108;2024-01-11T07:09:02;70.73;;;36.07;;
13102;SDS011;52970;46.752;17.108;2024-01-11T07:11:28;61.27;;;34.47;;
13102;SDS011;52970;46.752;17.108;2024-01-11T07:13:53;66.87;;;33.77;;
13102;SDS011;52970;46.752;17.108;2024-01-11T07:16:19;60.87;;;32.80;;
13102;SDS011;52970;46.752;17.108;2024-01-11T07:18:44;61.50;;;30.80;;
13102;SDS011;52970;46.752;17.108;2024-01-11T07:21:10;54.57;;;28.93;;
13102;SDS011;52970;46.752;17.108;2024-01-11T07:23:35;52.37;;;29.07;;
13102;SDS011;52970;46.752;17.108;2024-01-11T07:26:00;52.40;;;29.00;;
13102;SDS011;52970;46.752;17.108;2024-01-11T07:28:25;51.90;;;28.33;;
13102;SDS011;52970;46.752;17.108;2024-01-11T07:30:51;52.73;;;27.20;;
13102;SDS011;52970;46.752;17.108;2024-01-11T07:33:17;53.67;;;27.73;;
13102;SDS011;52970;46.752;17.108;2024-01-11T07:35:43;53.17;;;27.90;;
13102;SDS011;52970;46.752;17.108;2024-01-11T07:38:08;53.23;;;28.77;;
13102;SDS011;52970;46.752;17.108;2024-01-11T07:40:33;51.50;;;29.43;;
13102;SDS011;52970;46.752;17.108;2024-01-11T07:42:59;58.53;;;31.00;;
13102;SDS011;52970;46.752;17.108;2024-01-11T07:45:24;55.53;;;29.10;;
13102;SDS011;52970;46.752;17.108;2024-01-11T07:47:49;54.50;;;28.60;;
13102;SDS011;52970;46.752;17.108;2024-01-11T07:50:14;57.77;;;31.50;;
13102;SDS011;52970;46.752;17.108;2024-01-11T07:52:40;54.63;;;31.97;;
13102;SDS011;52970;46.752;17.108;2024-01-11T07:55:08;54.30;;;32.13;;
13102;SDS011;52970;46.752;17.108;2024-01-11T07:57:35;59.50;;;33.63;;
13102;SDS011;52970;46.752;17.108;2024-01-11T08:00:00;54.87;;;32.23;;
13102;SDS011;52970;46.752;17.108;2024-01-11T08:02:26;62.70;;;36.30;;
13102;SDS011;52970;46.752;17.108;2024-01-11T08:04:51;63.63;;;34.10;;
13102;SDS011;52970;46.752;17.108;2024-01-11T08:07:16;70.90;;;38.03;;
13102;SDS011;52970;46.752;17.108;2024-01-11T08:09:42;77.00;;;39.60;;
13102;SDS011;52970;46.752;17.108;2024-01-11T08:12:10;74.20;;;43.53;;
13102;SDS011;52970;46.752;17.108;2024-01-11T08:14:36;69.73;;;37.17;;
13102;SDS011;52970;46.752;17.108;2024-01-11T08:17:01;66.90;;;36.53;;
13102;SDS011;52970;46.752;17.108;2024-01-11T08:19:29;58.87;;;33.00;;
13102;SDS011;52970;46.752;17.108;2024-01-11T08:21:55;59.23;;;33.03;;
13102;SDS011;52970;46.752;17.108;2024-01-11T08:24:21;55.37;;;32.33;;
13102;SDS011;52970;46.752;17.108;2024-01-11T08:26:46;56.03;;;31.90;;
13102;SDS011;52970;46.752;17.108;2024-01-11T08:29:12;61.60;;;34.33;;
13102;SDS011;52970;46.752;17.108;2024-01-11T08:31:38;60.90;;;33.63;;
13102;SDS011;52970;46.752;17.108;2024-01-11T08:34:03;64.67;;;33.73;;
13102;SDS011;52970;46.752;17.108;2024-01-11T08:36:32;65.57;;;36.67;;
13102;SDS011;52970;46.752;17.108;2024-01-11T08:38:59;58.33;;;34.73;;
13102;SDS011;52970;46.752;17.108;2024-01-11T08:41:25;60.00;;;34.40;;
13102;SDS011;52970;46.752;17.108;2024-01-11T08:43:50;54.57;;;34.50;;
13102;SDS011;52970;46.752;17.108;2024-01-11T08:46:23;57.33;;;33.83;;
13102;SDS011;52970;46.752;17.108;2024-01-11T08:48:49;65.23;;;34.60;;
13102;SDS011;52970;46.752;17.108;2024-01-11T08:51:14;59.43;;;33.60;;
13102;SDS011;52970;46.752;17.108;2024-01-11T08:53:39;59.53;;;34.63;;
13102;SDS011;52970;46.752;17.108;2024-01-11T08:56:05;57.17;;;36.03;;
13102;SDS011;52970;46.752;17.108;2024-01-11T08:58:30;56.50;;;34.13;;
13102;SDS011;52970;46.752;17.108;2024-01-11T09:00:55;59.27;;;34.03;;
13102;SDS011;52970;46.752;17.108;2024-01-11T09:03:21;56.97;;;32.40;;
13102;SDS011;52970;46.752;17.108;2024-01-11T09:05:46;54.70;;;32.60;;
13102;SDS011;52970;46.752;17.108;2024-01-11T09:08:11;58.63;;;35.40;;
13102;SDS011;52970;46.752;17.108;2024-01-11T09:10:36;150.47;;;66.07;;
13102;SDS011;52970;46.752;17.108;2024-01-11T09:13:02;91.93;;;44.83;;
13102;SDS011;52970;46.752;17.108;2024-01-11T09:15:27;63.83;;;34.67;;
13102;SDS011;52970;46.752;17.108;2024-01-11T09:17:52;51.57;;;29.50;;
13102;SDS011;52970;46.752;17.108;2024-01-11T09:20:17;37.77;;;23.10;;
13102;SDS011;52970;46.752;17.108;2024-01-11T09:22:43;51.57;;;29.00;;
13102;SDS011;52970;46.752;17.108;2024-01-11T09:25:10;51.13;;;31.03;;
13102;SDS011;52970;46.752;17.108;2024-01-11T09:27:35;44.43;;;27.90;;
13102;SDS011;52970;46.752;17.108;2024-01-11T09:30:01;49.40;;;27.97;;
13102;SDS011;52970;46.752;17.108;2024-01-11T09:32:26;50.53;;;29.47;;
13102;SDS011;52970;46.752;17.108;2024-01-11T09:34:51;51.57;;;30.17;;
13102;SDS011;52970;46.752;17.108;2024-01-11T09:37:16;47.60;;;29.60;;
13102;SDS011;52970;46.752;17.108;2024-01-11T09:39:42;50.67;;;28.53;;
13102;SDS011;52970;46.752;17.108;2024-01-11T09:42:08;53.27;;;29.03;;
13102;SDS011;52970;46.752;17.108;2024-01-11T09:44:37;48.83;;;29.73;;
13102;SDS011;52970;46.752;17.108;2024-01-11T09:47:03;46.27;;;28.93;;
13102;SDS011;52970;46.752;17.108;2024-01-11T09:49:29;49.17;;;28.20;;
13102;SDS011;52970;46.752;17.108;2024-01-11T09:51:55;51.03;;;29.23;;
13102;SDS011;52970;46.752;17.108;2024-01-11T09:54:22;47.97;;;29.63;;
13102;SDS011;52970;46.752;17.108;2024-01-11T09:56:49;50.47;;;29.20;;
13102;SDS011;52970;46.752;17.108;2024-01-11T09:59:16;47.50;;;28.13;;
13102;SDS011;52970;46.752;17.108;2024-01-11T10:01:43;49.17;;;29.20;;
13102;SDS011;52970;46.752;17.108;2024-01-11T10:04:08;48.43;;;30.23;;
13102;SDS011;52970;46.752;17.108;2024-01-11T10:06:34;42.47;;;25.43;;
13102;SDS011;52970;46.752;17.108;2024-01-11T10:09:01;41.33;;;25.13;;
13102;SDS011;52970;46.752;17.108;2024-01-11T10:11:27;37.80;;;23.77;;
13102;SDS011;52970;46.752;17.108;2024-01-11T10:13:56;40.70;;;24.23;;
13102;SDS011;52970;46.752;17.108;2024-01-11T10:16:22;39.37;;;24.63;;
13102;SDS011;52970;46.752;17.108;2024-01-11T10:18:47;39.03;;;23.37;;
13102;SDS011;52970;46.752;17.108;2024-01-11T10:21:12;39.27;;;22.47;;
13102;SDS011;52970;46.752;17.108;2024-01-11T10:23:38;36.30;;;20.87;;
13102;SDS011;52970;46.752;17.108;2024-01-11T10:26:04;38.70;;;23.50;;
13102;SDS011;52970;46.752;17.108;2024-01-11T10:28:32;31.07;;;21.83;;
13102;SDS011;52970;46.752;17.108;2024-01-11T10:31:01;34.63;;;21.90;;
13102;SDS011;52970;46.752;17.108;2024-01-11T10:33:27;38.27;;;23.13;;
13102;SDS011;52970;46.752;17.108;2024-01-11T10:35:52;36.57;;;22.83;;
13102;SDS011;52970;46.752;17.108;2024-01-11T10:38:17;33.27;;;20.00;;
13102;SDS011;52970;46.752;17.108;2024-01-11T10:40:43;32.43;;;20.43;;
13102;SDS011;52970;46.752;17.108;2024-01-11T10:43:09;33.53;;;20.23;;
13102;SDS011;52970;46.752;17.108;2024-01-11T10:45:38;32.53;;;20.80;;
13102;SDS011;52970;46.752;17.108;2024-01-11T10:48:06;29.73;;;18.70;;
13102;SDS011;52970;46.752;17.108;2024-01-11T10:50:35;29.50;;;19.90;;
13102;SDS011;52970;46.752;17.108;2024-01-11T10:53:08;34.97;;;20.13;;
13102;SDS011;52970;46.752;17.108;2024-01-11T10:55:37;29.50;;;17.87;;
13102;SDS011;52970;46.752;17.108;2024-01-11T10:58:03;31.20;;;18.63;;
13102;SDS011;52970;46.752;17.108;2024-01-11T11:00:28;29.17;;;18.70;;
13102;SDS011;52970;46.752;17.108;2024-01-11T11:02:55;27.90;;;18.47;;
13102;SDS011;52970;46.752;17.108;2024-01-11T11:05:21;28.03;;;18.53;;
13102;SDS011;52970;46.752;17.108;2024-01-11T11:07:47;28.03;;;18.37;;
13102;SDS011;52970;46.752;17.108;2024-01-11T11:10:13;28.23;;;18.53;;
13102;SDS011;52970;46.752;17.108;2024-01-11T11:12:39;28.27;;;18.67;;
13102;SDS011;52970;46.752;17.108;2024-01-11T11:15:05;29.57;;;19.83;;
13102;SDS011;52970;46.752;17.108;2024-01-11T11:17:31;28.60;;;19.30;;
13102;SDS011;52970;46.752;17.108;2024-01-11T11:19:57;29.30;;;19.07;;
13102;SDS011;52970;46.752;17.108;2024-01-11T11:22:22;28.00;;;16.83;;
13102;SDS011;52970;46.752;17.108;2024-01-11T11:24:47;26.20;;;17.47;;
13102;SDS011;52970;46.752;17.108;2024-01-11T11:27:13;27.47;;;18.17;;
13102;SDS011;52970;46.752;17.108;2024-01-11T11:29:38;23.70;;;16.30;;
13102;SDS011;52970;46.752;17.108;2024-01-11T11:32:04;23.57;;;15.70;;
13102;SDS011;52970;46.752;17.108;2024-01-11T11:34:45;23.87;;;15.27;;
13102;SDS011;52970;46.752;17.108;2024-01-11T11:37:11;25.63;;;15.73;;
13102;SDS011;52970;46.752;17.108;2024-01-11T11:39:36;26.13;;;17.53;;
13102;SDS011;52970;46.752;17.108;2024-01-11T11:42:02;23.67;;;17.03;;
13102;SDS011;52970;46.752;17.108;2024-01-11T11:44:29;23.60;;;15.53;;
13102;SDS011;52970;46.752;17.108;2024-01-11T11:46:54;27.83;;;18.07;;
13102;SDS011;52970;46.752;17.108;2024-01-11T11:49:20;29.30;;;17.33;;
13102;SDS011;52970;46.752;17.108;2024-01-11T11:51:45;24.03;;;16.17;;
13102;SDS011;52970;46.752;17.108;2024-01-11T11:54:10;23.50;;;15.57;;
13102;SDS011;52970;46.752;17.108;2024-01-11T11:56:36;23.77;;;15.37;;
13102;SDS011;52970;46.752;17.108;2024-01-11T11:59:02;23.40;;;15.13;;
13102;SDS011;52970;46.752;17.108;2024-01-11T12:01:27;24.03;;;13.87;;
13102;SDS011;52970;46.752;17.108;2024-01-11T12:03:53;20.87;;;13.17;;
13102;SDS011;52970;46.752;17.108;2024-01-11T12:06:19;20.93;;;13.97;;
13102;SDS011;52970;46.752;17.108;2024-01-11T12:08:45;18.00;;;12.40;;
13102;SDS011;52970;46.752;17.108;2024-01-11T12:11:15;18.77;;;13.17;;
13102;SDS011;52970;46.752;17.108;2024-01-11T12:13:42;19.80;;;13.80;;
13102;SDS011;52970;46.752;17.108;2024-01-11T12:16:09;22.90;;;14.10;;
13102;SDS011;52970;46.752;17.108;2024-01-11T12:18:34;23.07;;;14.30;;
13102;SDS011;52970;46.752;17.108;2024-01-11T12:20:59;19.30;;;12.77;;
13102;SDS011;52970;46.752;17.108;2024-01-11T12:23:25;22.70;;;14.73;;
13102;SDS011;52970;46.752;17.108;2024-01-11T12:25:50;21.57;;;14.03;;
13102;SDS011;52970;46.752;17.108;2024-01-11T12:28:15;22.77;;;14.93;;
13102;SDS011;52970;46.752;17.108;2024-01-11T12:30:41;22.93;;;15.57;;
13102;SDS011;52970;46.752;17.108;2024-01-11T12:33:07;23.50;;;15.83;;
13102;SDS011;52970;46.752;17.108;2024-01-11T12:35:32;22.67;;;15.57;;
13102;SDS011;52970;46.752;17.108;2024-01-11T12:37:58;25.10;;;16.50;;
13102;SDS011;52970;46.752;17.108;2024-01-11T12:40:24;26.37;;;17.03;;
13102;SDS011;52970;46.752;17.108;2024-01-11T12:42:49;26.40;;;17.43;;
13102;SDS011;52970;46.752;17.108;2024-01-11T12:45:15;25.10;;;16.47;;
13102;SDS011;52970;46.752;17.108;2024-01-11T12:47:40;24.67;;;17.10;;
13102;SDS011;52970;46.752;17.108;2024-01-11T12:50:06;26.30;;;17.67;;
13102;SDS011;52970;46.752;17.108;2024-01-11T12:52:32;27.67;;;17.67;;
13102;SDS011;52970;46.752;17.108;2024-01-11T12:54:58;24.10;;;17.63;;
13102;SDS011;52970;46.752;17.108;2024-01-11T12:57:23;27.30;;;16.93;;
13102;SDS011;52970;46.752;17.108;2024-01-11T12:59:48;27.23;;;19.30;;
13102;SDS011;52970;46.752;17.108;2024-01-11T13:02:14;26.60;;;18.10;;
13102;SDS011;52970;46.752;17.108;2024-01-11T13:04:40;28.00;;;18.50;;
13102;SDS011;52970;46.752;17.108;2024-01-11T13:07:07;26.93;;;17.07;;
13102;SDS011;52970;46.752;17.108;2024-01-11T13:09:34;33.40;;;21.67;;
13102;SDS011;52970;46.752;17.108;2024-01-11T13:11:59;28.83;;;18.90;;
13102;SDS011;52970;46.752;17.108;2024-01-11T13:14:25;28.57;;;18.83;;
13102;SDS011;52970;46.752;17.108;2024-01-11T13:16:50;26.00;;;17.80;;
13102;SDS011;52970;46.752;17.108;2024-01-11T13:19:16;27.73;;;18.27;;
13102;SDS011;52970;46.752;17.108;2024-01-11T13:21:41;28.13;;;18.53;;
13102;SDS011;52970;46.752;17.108;2024-01-11T13:24:06;25.60;;;18.63;;
13102;SDS011;52970;46.752;17.108;2024-01-11T13:26:33;26.67;;;17.90;;
13102;SDS011;52970;46.752;17.108;2024-01-11T13:28:58;25.07;;;17.60;;
13102;SDS011;52970;46.752;17.108;2024-01-11T13:31:23;25.07;;;17.57;;
13102;SDS011;52970;46.752;17.108;2024-01-11T13:33:49;28.10;;;18.90;;
13102;SDS011;52970;46.752;17.108;2024-01-11T13:36:14;27.73;;;18.57;;
13102;SDS011;52970;46.752;17.108;2024-01-11T13:38:40;28.20;;;18.67;;
13102;SDS011;52970;46.752;17.108;2024-01-11T13:41:06;29.27;;;18.37;;
13102;SDS011;52970;46.752;17.108;2024-01-11T13:43:33;28.30;;;18.40;;
13102;SDS011;52970;46.752;17.108;2024-01-11T13:45:58;31.00;;;19.43;;
13102;SDS011;52970;46.752;17.108;2024-01-11T13:48:23;26.30;;;17.77;;
13102;SDS011;52970;46.752;17.108;2024-01-11T13:50:49;30.60;;;18.87;;
13102;SDS011;52970;46.752;17.108;2024-01-11T13:53:14;31.00;;;20.13;;
13102;SDS011;52970;46.752;17.108;2024-01-11T13:55:40;28.33;;;18.33;;
13102;SDS011;52970;46.752;17.108;2024-01-11T13:58:05;26.57;;;18.17;;
13102;SDS011;52970;46.752;17.108;2024-01-11T14:00:31;31.97;;;20.93;;